createdAt,value
2023-04-13T00:03:36.892Z,100767.70
2023-04-13T00:06:06.813Z,100786.73
2023-04-13T00:08:35.009Z,100788.84
2023-04-13T00:11:05.884Z,100795.77
2023-04-13T00:13:35.450Z,100791.92
2023-04-13T00:16:03.815Z,100796.18
2023-04-13T00:18:33.650Z,100802.05
2023-04-13T00:21:02.885Z,100808.79
2023-04-13T00:23:31.098Z,100804.39
2023-04-13T00:25:59.589Z,100806.10
2023-04-13T00:28:29.516Z,100810.52
2023-04-13T00:30:58.308Z,100808.11
2023-04-13T00:33:26.787Z,100810.90
2023-04-13T00:35:55.352Z,100809.38
2023-04-13T00:38:25.776Z,100806.24
2023-04-13T00:40:55.248Z,100809.91
2023-04-13T00:43:23.843Z,100819.15
2023-04-13T00:45:52.532Z,100810.20
2023-04-13T00:48:21.052Z,100807.05
2023-04-13T00:50:49.318Z,100810.00
2023-04-13T00:53:18.465Z,100810.61
2023-04-13T00:55:48.388Z,100809.77
2023-04-13T00:58:17.613Z,100809.48
2023-04-13T01:00:46.786Z,100809.70
2023-04-13T01:03:16.647Z,100807.44
2023-04-13T01:06:23.207Z,100802.30
2023-04-13T01:09:16.078Z,100806.89
2023-04-13T01:11:53.455Z,100802.09
2023-04-13T01:14:33.144Z,100803.97
2023-04-13T01:17:05.991Z,100807.26
2023-04-13T01:19:56.731Z,100805.16
2023-04-13T01:22:29.547Z,100806.30
2023-04-13T01:25:10.284Z,100805.66
2023-04-13T01:27:47.824Z,100799.80
2023-04-13T01:30:19.434Z,100804.52
2023-04-13T01:32:50.936Z,100800.49
2023-04-13T01:35:20.681Z,100798.77
2023-04-13T01:37:50.155Z,100795.80
2023-04-13T01:40:22.205Z,100798.67
2023-04-13T01:42:51.676Z,100796.55
2023-04-13T01:45:27.539Z,100794.42
2023-04-13T01:48:05.896Z,100791.27
2023-04-13T01:50:41.240Z,100794.36
2023-04-13T01:53:17.814Z,100789.05
2023-04-13T01:55:48.558Z,100787.67
2023-04-13T01:58:20.844Z,100786.84
2023-04-13T02:00:49.261Z,100784.92
2023-04-13T02:03:18.166Z,100789.65
2023-04-13T02:05:47.636Z,100787.19
2023-04-13T02:08:16.591Z,100787.24
2023-04-13T02:10:45.475Z,100791.05
2023-04-13T02:13:13.673Z,100795.21
2023-04-13T02:15:42.245Z,100796.86
2023-04-13T02:18:10.843Z,100801.59
2023-04-13T02:20:41.759Z,100802.17
2023-04-13T02:23:14.061Z,100802.78
2023-04-13T02:25:43.852Z,100806.23
2023-04-13T02:28:14.186Z,100807.90
2023-04-13T02:30:43.745Z,100807.05
2023-04-13T02:33:12.542Z,100805.48
2023-04-13T02:35:41.476Z,100805.69
2023-04-13T02:38:10.522Z,100807.88
2023-04-13T02:40:39.419Z,100810.41
2023-04-13T02:43:10.420Z,100813.14
2023-04-13T02:45:40.119Z,100817.60
2023-04-13T02:48:08.857Z,100815.13
2023-04-13T02:50:38.143Z,100818.71
2023-04-13T02:53:06.900Z,100815.14
2023-04-13T02:55:35.710Z,100824.12
2023-04-13T02:58:05.866Z,100830.39
2023-04-13T03:00:35.441Z,100836.86
2023-04-13T03:03:04.971Z,100838.33
2023-04-13T03:05:34.318Z,100842.30
2023-04-13T03:08:02.889Z,100845.36
2023-04-13T03:10:32.342Z,100850.04
2023-04-13T03:13:02.040Z,100855.96
2023-04-13T03:15:31.171Z,100855.24
2023-04-13T03:17:59.790Z,100855.09
2023-04-13T03:20:29.501Z,100854.55
2023-04-13T03:22:57.789Z,100853.34
2023-04-13T03:25:26.015Z,100855.69
2023-04-13T03:27:55.650Z,100855.52
2023-04-13T03:30:24.043Z,100852.14
2023-04-13T03:32:52.241Z,100855.57
2023-04-13T03:35:21.005Z,100855.95
2023-04-13T03:37:49.295Z,100862.97
2023-04-13T03:40:17.427Z,100865.51
2023-04-13T03:42:46.069Z,100870.92
2023-04-13T03:45:14.786Z,100880.64
2023-04-13T03:47:43.553Z,100889.05
2023-04-13T03:50:12.575Z,100887.48
2023-04-13T03:52:41.314Z,100886.96
2023-04-13T03:55:10.422Z,100888.60
2023-04-13T03:57:39.525Z,100892.38
2023-04-13T04:00:08.614Z,100898.67
2023-04-13T04:02:40.428Z,100903.70
2023-04-13T04:05:09.909Z,100908.91
2023-04-13T04:07:41.847Z,100912.70
2023-04-13T04:10:11.399Z,100913.27
2023-04-13T04:12:39.546Z,100921.35
2023-04-13T04:15:09.460Z,100921.36
2023-04-13T04:17:39.943Z,100927.43
2023-04-13T04:20:09.380Z,100939.25
2023-04-13T04:22:37.748Z,100938.20
2023-04-13T04:25:07.187Z,100945.54
2023-04-13T04:27:36.185Z,100944.11
2023-04-13T04:30:07.121Z,100946.63
2023-04-13T04:32:35.858Z,100948.23
2023-04-13T04:35:05.909Z,100954.34
2023-04-13T04:37:34.531Z,100958.45
2023-04-13T04:40:07.906Z,100960.61
2023-04-13T04:42:37.422Z,100963.30
2023-04-13T04:45:06.896Z,100968.14
2023-04-13T04:47:35.688Z,100972.78
2023-04-13T04:50:06.213Z,100966.37
2023-04-13T04:52:34.856Z,100963.69
2023-04-13T04:55:03.690Z,100966.02
2023-04-13T04:57:32.944Z,100964.59
2023-04-13T05:00:02.322Z,100966.02
2023-04-13T05:02:31.983Z,100971.58
2023-04-13T05:05:02.575Z,100978.22
2023-04-13T05:07:30.615Z,100977.33
2023-04-13T05:09:58.958Z,100977.52
2023-04-13T05:12:28.216Z,100980.04
2023-04-13T05:14:56.910Z,100992.39
2023-04-13T05:17:25.565Z,100995.44
2023-04-13T05:19:54.536Z,100997.98
2023-04-13T05:22:23.342Z,101013.02
2023-04-13T05:24:52.140Z,101019.66
2023-04-13T05:27:22.154Z,101018.95
2023-04-13T05:29:50.899Z,101029.52
2023-04-13T05:32:19.529Z,101035.30
2023-04-13T05:34:48.560Z,101038.89
2023-04-13T05:37:16.741Z,101034.80
2023-04-13T05:39:45.971Z,101027.84
2023-04-13T05:42:16.396Z,101028.93
2023-04-13T05:44:45.126Z,101037.67
2023-04-13T05:47:13.734Z,101035.89
2023-04-13T05:49:42.880Z,101037.16
2023-04-13T05:52:12.413Z,101035.75
2023-04-13T05:54:41.151Z,101038.95
2023-04-13T05:57:10.137Z,101043.44
2023-04-13T05:59:38.861Z,101048.80
2023-04-13T06:02:08.003Z,101050.41
2023-04-13T06:04:38.858Z,101052.73
2023-04-13T06:07:08.572Z,101049.87
2023-04-13T06:09:37.254Z,101049.67
2023-04-13T06:12:08.731Z,101057.89
2023-04-13T06:14:37.980Z,101069.30
2023-04-13T06:17:06.708Z,101073.74
2023-04-13T06:19:35.609Z,101077.14
2023-04-13T06:22:03.900Z,101087.29
2023-04-13T06:24:32.413Z,101090.70
2023-04-13T06:27:02.368Z,101093.03
2023-04-13T06:29:31.315Z,101099.64
2023-04-13T06:32:00.359Z,101104.82
2023-04-13T06:34:29.163Z,101108.77
2023-04-13T06:36:57.314Z,101108.95
2023-04-13T06:39:28.246Z,101105.38
2023-04-13T06:41:57.311Z,101115.20
2023-04-13T06:44:26.654Z,101114.83
2023-04-13T06:46:56.842Z,101115.68
2023-04-13T06:49:25.215Z,101119.02
2023-04-13T06:51:53.425Z,101128.64
2023-04-13T06:54:22.278Z,101136.33
2023-04-13T06:56:50.855Z,101132.92
2023-04-13T06:59:19.760Z,101134.52
2023-04-13T07:01:48.496Z,101135.74
2023-04-13T07:04:17.287Z,101140.54
2023-04-13T07:06:46.878Z,101148.60
2023-04-13T07:09:16.858Z,101156.83
2023-04-13T07:11:45.709Z,101151.48
2023-04-13T07:14:13.850Z,101143.27
2023-04-13T07:16:43.211Z,101145.38
2023-04-13T07:19:12.547Z,101141.66
2023-04-13T07:21:41.538Z,101138.47
2023-04-13T07:24:09.765Z,101151.31
2023-04-13T07:26:40.050Z,101155.77
2023-04-13T07:29:08.084Z,101154.68
2023-04-13T07:31:36.804Z,101154.65
2023-04-13T07:34:05.550Z,101156.77
2023-04-13T07:36:33.636Z,101156.41
2023-04-13T07:39:01.997Z,101161.09
2023-04-13T07:41:30.896Z,101161.30
2023-04-13T07:44:00.720Z,101157.25
2023-04-13T07:46:30.179Z,101158.20
2023-04-13T07:48:58.656Z,101162.33
2023-04-13T07:51:28.287Z,101164.14
2023-04-13T07:53:57.590Z,101169.32
2023-04-13T07:56:26.893Z,101169.33
2023-04-13T07:58:55.078Z,101172.18
2023-04-13T08:01:23.809Z,101174.49
2023-04-13T08:03:52.669Z,101173.60
2023-04-13T08:06:21.232Z,101170.58
2023-04-13T08:08:50.240Z,101174.84
2023-04-13T08:11:20.283Z,101173.05
2023-04-13T08:13:49.909Z,101176.09
2023-04-13T08:16:19.082Z,101177.91
2023-04-13T08:18:48.347Z,101183.67
2023-04-13T08:21:16.490Z,101185.84
2023-04-13T08:23:44.972Z,101190.68
2023-04-13T08:26:19.121Z,101193.16
2023-04-13T08:28:49.065Z,101193.11
2023-04-13T08:31:17.818Z,101194.84
2023-04-13T08:33:46.806Z,101198.27
2023-04-13T08:36:15.354Z,101202.13
2023-04-13T08:38:43.973Z,101208.67
2023-04-13T08:41:16.735Z,101209.61
2023-04-13T08:43:46.687Z,101206.32
2023-04-13T08:46:17.925Z,101201.73
2023-04-13T08:48:54.069Z,101201.39
2023-04-13T08:51:27.793Z,101201.73
2023-04-13T08:53:56.359Z,101213.27
2023-04-13T08:56:37.633Z,101219.84
2023-04-13T08:59:13.328Z,101222.75
2023-04-13T09:01:45.312Z,101223.66
2023-04-13T09:04:17.674Z,101224.87
2023-04-13T09:06:48.646Z,101227.69
2023-04-13T09:09:19.373Z,101232.11
2023-04-13T09:11:49.321Z,101233.22
2023-04-13T09:14:19.727Z,101231.34
2023-04-13T09:16:48.024Z,101232.39
2023-04-13T09:19:16.260Z,101240.88
2023-04-13T09:21:45.405Z,101242.65
2023-04-13T09:24:14.187Z,101238.91
2023-04-13T09:26:43.980Z,101234.17
2023-04-13T09:29:20.458Z,101234.19
2023-04-13T09:31:49.227Z,101239.43
2023-04-13T09:34:30.418Z,101241.17
2023-04-13T09:37:01.039Z,101243.06
2023-04-13T09:39:30.093Z,101244.70
2023-04-13T09:42:10.512Z,101246.25
2023-04-13T09:44:38.962Z,101245.20
2023-04-13T09:47:08.646Z,101247.73
2023-04-13T09:49:40.111Z,101245.16
2023-04-13T09:52:28.610Z,101243.89
2023-04-13T09:54:58.184Z,101252.40
2023-04-13T09:57:28.342Z,101246.10
2023-04-13T09:59:58.650Z,101239.56
2023-04-13T10:02:28.041Z,101235.54
2023-04-13T10:04:57.832Z,101231.39
2023-04-13T10:07:26.249Z,101231.74
2023-04-13T10:09:54.675Z,101229.80
2023-04-13T10:12:27.956Z,101228.33
2023-04-13T10:15:11.085Z,101231.90
2023-04-13T10:17:55.122Z,101227.91
2023-04-13T10:20:26.652Z,101227.10
2023-04-13T10:22:57.098Z,101226.06
2023-04-13T10:25:32.839Z,101229.57
2023-04-13T10:28:03.042Z,101224.13
2023-04-13T10:30:33.105Z,101221.88
2023-04-13T10:33:10.074Z,101227.37
2023-04-13T10:35:42.149Z,101230.08
2023-04-13T10:38:14.448Z,101242.95
2023-04-13T10:40:48.339Z,101244.08
2023-04-13T10:43:32.261Z,101246.58
2023-04-13T10:46:11.596Z,101238.17
2023-04-13T10:48:42.966Z,101238.34
2023-04-13T10:51:13.399Z,101238.55
2023-04-13T10:53:44.195Z,101241.63
2023-04-13T10:56:18.901Z,101247.79
2023-04-13T10:58:55.713Z,101246.42
2023-04-13T11:01:27.116Z,101242.47
2023-04-13T11:04:04.603Z,101238.83
2023-04-13T11:06:40.356Z,101249.63
2023-04-13T11:09:09.598Z,101254.89
2023-04-13T11:11:37.791Z,101249.61
2023-04-13T11:14:06.851Z,101245.92
2023-04-13T11:16:45.269Z,101242.39
2023-04-13T11:19:13.569Z,101239.54
2023-04-13T11:21:42.466Z,101234.38
2023-04-13T11:24:10.945Z,101229.29
2023-04-13T11:26:39.189Z,101233.90
2023-04-13T11:29:18.191Z,101228.69
2023-04-13T11:31:46.611Z,101233.84
2023-04-13T11:34:23.502Z,101231.73
2023-04-13T11:37:01.954Z,101224.29
2023-04-13T11:39:30.751Z,101218.99
2023-04-13T11:42:05.129Z,101216.23
2023-04-13T11:44:37.466Z,101218.83
2023-04-13T11:47:06.593Z,101203.64
2023-04-13T11:49:35.030Z,101198.40
2023-04-13T11:52:04.396Z,101197.37
2023-04-13T11:54:32.738Z,101203.43
2023-04-13T11:57:01.112Z,101198.91
2023-04-13T11:59:29.939Z,101194.44
2023-04-13T12:02:03.679Z,101193.02
2023-04-13T12:04:39.938Z,101185.77
2023-04-13T12:07:13.075Z,101174.98
2023-04-13T12:15:13.964Z,101180.46
2023-04-13T12:17:58.120Z,101181.27
2023-04-13T12:20:38.370Z,101179.32
2023-04-13T12:23:26.664Z,101181.88
2023-04-13T12:26:13.164Z,101180.67
2023-04-13T12:28:55.437Z,101180.10
2023-04-13T12:31:23.872Z,101178.48
2023-04-13T12:33:52.279Z,101174.29
2023-04-13T12:36:20.719Z,101173.29
2023-04-13T12:38:49.256Z,101170.38
2023-04-13T12:41:17.356Z,101175.61
2023-04-13T12:43:45.639Z,101179.25
2023-04-13T12:46:13.930Z,101173.30
2023-04-13T12:48:42.081Z,101168.98
2023-04-13T12:51:10.718Z,101173.67
2023-04-13T12:53:39.577Z,101176.70
2023-04-13T12:56:08.893Z,101179.86
2023-04-13T12:58:37.800Z,101175.17
2023-04-13T13:01:06.029Z,101165.32
2023-04-13T13:03:34.534Z,101163.05
2023-04-13T13:06:05.939Z,101161.77
2023-04-13T13:08:37.577Z,101159.11
2023-04-13T13:11:08.566Z,101155.09
2023-04-13T13:13:36.917Z,101161.89
2023-04-13T13:16:05.625Z,101156.29
2023-04-13T13:18:49.194Z,101142.69
2023-04-13T13:21:19.203Z,101142.84
2023-04-13T13:23:47.464Z,101140.34
2023-04-13T13:28:47.957Z,101139.16
2023-04-13T13:31:16.645Z,101135.95
2023-04-13T13:33:45.554Z,101137.70
2023-04-13T13:36:14.893Z,101145.45
2023-04-13T13:38:47.185Z,101153.67
2023-04-13T13:41:15.504Z,101146.73
2023-04-13T13:43:43.591Z,101145.55
2023-04-13T13:46:11.961Z,101136.86
2023-04-13T13:48:40.313Z,101135.10
2023-04-13T13:51:08.460Z,101138.98
2023-04-13T13:53:36.552Z,101131.05
2023-04-13T13:56:05.557Z,101132.84
2023-04-13T13:58:33.762Z,101133.56
2023-04-13T14:01:02.268Z,101135.57
2023-04-13T14:03:31.202Z,101134.76
2023-04-13T14:06:00.434Z,101121.15
2023-04-13T14:08:29.863Z,101122.34
2023-04-13T14:10:58.649Z,101120.52
2023-04-13T14:13:28.042Z,101122.06
2023-04-13T14:15:57.901Z,101122.91
2023-04-13T14:18:26.942Z,101111.54
2023-04-13T14:20:57.428Z,101112.73
2023-04-13T14:23:27.350Z,101114.57
2023-04-13T14:25:55.727Z,101102.05
2023-04-13T14:28:23.997Z,101117.00
2023-04-13T14:30:52.903Z,101112.21
2023-04-13T14:33:21.084Z,101092.25
2023-04-13T14:35:49.317Z,101089.65
2023-04-13T14:38:17.643Z,101101.21
2023-04-13T14:40:46.327Z,101095.66
2023-04-13T14:43:14.440Z,101094.43
2023-04-13T14:45:43.417Z,101096.17
2023-04-13T14:48:11.667Z,101095.86
2023-04-13T14:50:39.939Z,101093.82
2023-04-13T14:53:08.417Z,101095.38
2023-04-13T14:55:37.025Z,101086.61
2023-04-13T14:58:05.277Z,101087.30
2023-04-13T15:00:33.642Z,101085.09
2023-04-13T15:03:02.332Z,101079.81
2023-04-13T15:05:36.925Z,101082.49
2023-04-13T15:08:06.145Z,101086.75
2023-04-13T15:10:35.130Z,101085.07
2023-04-13T15:13:04.549Z,101091.44
2023-04-13T15:15:34.573Z,101096.89
2023-04-13T15:18:04.798Z,101095.75
2023-04-13T15:20:33.312Z,101089.09
2023-04-13T15:23:01.969Z,101092.09
2023-04-13T15:25:30.369Z,101090.22
2023-04-13T15:27:59.068Z,101090.23
2023-04-13T15:30:30.861Z,101089.77
2023-04-13T15:33:00.570Z,101091.55
2023-04-13T15:35:30.787Z,101084.36
2023-04-13T15:38:03.091Z,101087.41
2023-04-13T15:40:33.935Z,101092.75
2023-04-13T15:43:03.956Z,101097.91
2023-04-13T15:45:34.588Z,101109.27
2023-04-13T15:48:02.872Z,101112.80
2023-04-13T15:50:31.488Z,101111.43
2023-04-13T15:53:00.171Z,101117.48
2023-04-13T15:55:29.631Z,101125.31
2023-04-13T15:57:58.739Z,101129.90
2023-04-13T16:00:27.494Z,101133.45
2023-04-13T16:02:56.573Z,101130.95
2023-04-13T16:05:25.317Z,101126.23
2023-04-13T16:07:54.887Z,101121.27
2023-04-13T16:10:24.256Z,101124.73
2023-04-13T16:12:52.898Z,101119.83
2023-04-13T16:15:22.705Z,101125.70
2023-04-13T16:17:51.687Z,101120.80
2023-04-13T16:20:21.698Z,101134.68
2023-04-13T16:22:51.951Z,101138.98
2023-04-13T16:25:21.251Z,101140.88
2023-04-13T16:27:49.889Z,101129.73
2023-04-13T16:30:18.971Z,101113.04
2023-04-13T16:32:49.648Z,101098.35
2023-04-13T16:35:18.465Z,101117.19
2023-04-13T16:37:46.964Z,101124.91
2023-04-13T16:40:15.208Z,101126.50
2023-04-13T16:42:44.234Z,101125.81
2023-04-13T16:45:14.985Z,101143.26
2023-04-13T16:47:45.304Z,101136.09
2023-04-13T16:50:14.970Z,101131.47
2023-04-13T16:52:43.672Z,101139.02
2023-04-13T16:55:13.416Z,101140.69
2023-04-13T16:57:43.488Z,101143.02
2023-04-13T17:00:12.608Z,101153.44
2023-04-13T17:02:42.611Z,101165.14
2023-04-13T17:05:12.696Z,101176.48
2023-04-13T17:07:43.556Z,101180.66
2023-04-13T17:10:13.304Z,101167.70
2023-04-13T17:12:41.760Z,101164.70
2023-04-13T17:15:11.933Z,101167.75
2023-04-13T17:17:42.115Z,101172.04
2023-04-13T17:20:12.054Z,101177.83
2023-04-13T17:22:40.604Z,101178.91
2023-04-13T17:25:13.704Z,101184.63
2023-04-13T17:27:42.361Z,101182.64
2023-04-13T17:30:13.903Z,101186.77
2023-04-13T17:32:42.243Z,101194.28
2023-04-13T17:35:11.307Z,101192.18
2023-04-13T17:37:40.927Z,101208.84
2023-04-13T17:40:10.047Z,101201.02
2023-04-13T17:42:38.829Z,101193.69
2023-04-13T17:45:09.548Z,101185.98
2023-04-13T17:47:37.942Z,101179.19
2023-04-13T17:50:08.514Z,101166.14
2023-04-13T17:52:37.221Z,101169.91
2023-04-13T17:55:07.049Z,101187.29
2023-04-13T17:57:35.343Z,101196.94
2023-04-13T18:00:05.031Z,101194.63
2023-04-13T18:02:33.711Z,101191.58
2023-04-13T18:05:05.486Z,101196.05
2023-04-13T18:07:33.822Z,101196.21
2023-04-13T18:10:03.059Z,101197.66
2023-04-13T18:12:31.460Z,101201.05
2023-04-13T18:14:59.736Z,101193.02
2023-04-13T18:17:28.776Z,101189.25
2023-04-13T18:19:58.332Z,101192.48
2023-04-13T18:22:26.976Z,101198.90
2023-04-13T18:24:55.611Z,101193.19
2023-04-13T18:27:25.507Z,101187.83
2023-04-13T18:29:55.357Z,101191.77
2023-04-13T18:32:23.957Z,101193.72
2023-04-13T18:34:52.649Z,101188.15
2023-04-13T18:37:21.276Z,101187.25
2023-04-13T18:39:49.380Z,101196.19
2023-04-13T18:42:17.913Z,101201.40
2023-04-13T18:44:46.021Z,101205.53
2023-04-13T18:47:14.116Z,101204.63
2023-04-13T18:49:42.900Z,101204.45
2023-04-13T18:52:11.389Z,101212.68
2023-04-13T18:54:39.538Z,101221.08
2023-04-13T18:57:07.840Z,101221.80
2023-04-13T18:59:36.277Z,101222.33
2023-04-13T19:02:05.793Z,101227.52
2023-04-13T19:04:35.490Z,101227.51
2023-04-13T19:07:03.742Z,101227.52
2023-04-13T19:09:31.993Z,101226.95
2023-04-13T19:12:00.276Z,101229.42
2023-04-13T19:14:28.373Z,101232.11
2023-04-13T19:16:57.989Z,101237.83
2023-04-13T19:19:26.899Z,101244.27
2023-04-13T19:21:56.485Z,101251.74
2023-04-13T19:24:24.854Z,101248.38
2023-04-13T19:26:53.390Z,101256.40
2023-04-13T19:29:21.614Z,101263.73
2023-04-13T19:31:49.887Z,101271.25
2023-04-13T19:34:18.754Z,101271.27
2023-04-13T19:36:46.822Z,101274.64
2023-04-13T19:39:17.131Z,101275.70
2023-04-13T19:41:45.770Z,101275.01
2023-04-13T19:44:14.723Z,101276.97
2023-04-13T19:46:43.868Z,101277.49
2023-04-13T19:49:13.827Z,101278.04
2023-04-13T19:51:42.532Z,101280.73
2023-04-13T19:54:10.840Z,101283.21
2023-04-13T19:56:39.328Z,101290.55
2023-04-13T19:59:08.754Z,101298.23
2023-04-13T20:01:36.935Z,101304.12
2023-04-13T20:04:06.143Z,101311.26
2023-04-13T20:06:35.441Z,101311.77
2023-04-13T20:09:12.602Z,101315.34
2023-04-13T20:11:41.277Z,101310.69
2023-04-13T20:14:10.090Z,101315.16
2023-04-13T20:16:39.107Z,101315.67
2023-04-13T20:19:09.095Z,101310.28
2023-04-13T20:21:37.467Z,101306.36
2023-04-13T20:24:06.337Z,101309.39
2023-04-13T20:26:34.565Z,101304.23
2023-04-13T20:29:04.638Z,101299.93
2023-04-13T20:31:33.671Z,101300.27
2023-04-13T20:34:02.513Z,101296.52
2023-04-13T20:36:31.710Z,101297.58
2023-04-13T20:39:00.529Z,101303.46
2023-04-13T20:41:30.181Z,101305.59
2023-04-13T20:44:00.697Z,101312.20
2023-04-13T20:46:29.393Z,101315.58
2023-04-13T20:48:57.955Z,101316.82
2023-04-13T20:51:26.193Z,101325.04
2023-04-13T20:53:54.516Z,101320.20
2023-04-13T20:56:22.701Z,101312.15
2023-04-13T20:58:53.242Z,101306.98
2023-04-13T21:01:23.629Z,101308.95
2023-04-13T21:03:53.431Z,101306.79
2023-04-13T21:06:22.957Z,101299.61
2023-04-13T21:08:51.257Z,101301.55
2023-04-13T21:11:19.474Z,101302.23
2023-04-13T21:13:47.759Z,101314.17
2023-04-13T21:16:15.907Z,101319.52
2023-04-13T21:18:44.937Z,101321.63
2023-04-13T21:21:13.018Z,101325.31
2023-04-13T21:23:41.505Z,101332.08
2023-04-13T21:26:09.758Z,101325.98
2023-04-13T21:28:38.833Z,101319.17
2023-04-13T21:31:07.022Z,101316.50
2023-04-13T21:33:35.248Z,101320.95
2023-04-13T21:38:41.001Z,101324.10
2023-04-13T21:41:15.778Z,101325.31
2023-04-13T21:43:45.912Z,101321.56
2023-04-13T21:46:15.933Z,101314.41
2023-04-13T21:48:44.284Z,101310.48
2023-04-13T21:51:13.987Z,101310.30
2023-04-13T21:53:42.346Z,101309.38
2023-04-13T21:56:11.199Z,101309.17
2023-04-13T21:58:41.360Z,101315.38
2023-04-13T22:01:10.036Z,101321.73
2023-04-13T22:03:40.273Z,101324.52
2023-04-13T22:06:11.223Z,101326.08
2023-04-13T22:08:40.410Z,101329.23
2023-04-13T22:11:12.214Z,101320.48
2023-04-13T22:13:42.059Z,101320.11
2023-04-13T22:16:10.608Z,101321.54
2023-04-13T22:18:39.457Z,101318.14
2023-04-13T22:21:08.019Z,101304.73
2023-04-13T22:23:36.339Z,101310.61
2023-04-13T22:26:06.083Z,101308.80
2023-04-13T22:28:34.197Z,101300.91
2023-04-13T22:31:07.002Z,101307.27
2023-04-13T22:33:36.550Z,101307.61
2023-04-13T22:36:06.559Z,101308.31
2023-04-13T22:38:34.797Z,101309.02
2023-04-13T22:41:07.594Z,101312.25
2023-04-13T22:43:36.065Z,101306.71
2023-04-13T22:46:05.146Z,101308.51
2023-04-13T22:48:33.676Z,101309.05
2023-04-13T22:51:02.510Z,101310.98
2023-04-13T22:53:31.190Z,101308.30
2023-04-13T22:55:59.547Z,101303.48
2023-04-13T22:58:28.333Z,101304.19
2023-04-13T23:00:56.739Z,101300.65
2023-04-13T23:03:25.548Z,101304.35
2023-04-13T23:05:54.216Z,101303.26
2023-04-13T23:08:23.911Z,101308.98
2023-04-13T23:10:52.490Z,101305.53
2023-04-13T23:13:21.513Z,101298.55
2023-04-13T23:15:58.545Z,101300.30
2023-04-13T23:18:28.608Z,101295.47
2023-04-13T23:20:57.332Z,101296.13
2023-04-13T23:23:25.796Z,101295.00
2023-04-13T23:25:54.609Z,101291.38
2023-04-13T23:28:23.901Z,101287.06
2023-04-13T23:30:52.681Z,101287.23
2023-04-13T23:33:29.862Z,101284.36
2023-04-13T23:35:59.161Z,101276.17
2023-04-13T23:38:28.319Z,101281.17
2023-04-13T23:40:58.379Z,101284.52
2023-04-13T23:43:27.124Z,101282.03
2023-04-13T23:45:58.218Z,101282.55
2023-04-13T23:48:26.595Z,101280.77
2023-04-13T23:50:55.477Z,101280.92
2023-04-13T23:53:26.093Z,101287.13
2023-04-13T23:55:54.283Z,101293.36
2023-04-13T23:58:22.715Z,101293.88
